Time;durP1;ratioP1;P1;durP2;ratioP2;P2;SDS_P1;SDS_P2;PMS_P1;PMS_P2;Temp;Humidity;BMP_temperature;BMP_pressure;BME280_temperature;BME280_humidity;BME280_pressure;Samples;Min_cycle;Max_cycle;Signal;HPM_P1;HPM_P2
2022/09/09 00:01:08;;;;;;;13.25;8.82;;;;;;;19.64;nan;100150.03;5033301;28;20040;-65
2022/09/09 00:03:59;;;;;;;12.32;8.80;;;;;;;19.44;nan;100155.66;5063204;28;20025;-66
2022/09/09 00:06:35;;;;;;;10.80;8.30;;;;;;;19.28;nan;100182.59;5064941;28;20111;-65
2022/09/09 00:09:26;;;;;;;12.23;8.82;;;;;;;19.32;nan;100183.63;5063940;28;20078;-68
2022/09/09 00:11:58;;;;;;;12.52;8.50;;;;;;;19.31;nan;100152.63;5047579;28;20040;-68
2022/09/09 00:14:37;;;;;;;14.77;9.20;;;;;;;19.42;nan;100221.91;5047712;28;20111;-68
2022/09/09 00:17:09;;;;;;;13.38;8.50;;;;;;;19.45;nan;100160.72;5066246;28;20173;-69
2022/09/09 00:20:16;;;;;;;12.00;8.45;;;;;;;19.54;nan;100175.00;5064499;28;20032;-69
2022/09/09 00:22:45;;;;;;;13.27;9.00;;;;;;;;;;5024999;28;20543;-68
2022/09/09 00:25:18;;;;;;;13.48;9.82;;;;;;;19.58;nan;100161.88;5026396;28;20128;-68
2022/09/09 00:27:47;;;;;;;14.73;9.00;;;;;;;19.36;nan;100135.75;5027599;28;20480;-69
2022/09/09 00:30:23;;;;;;;15.65;9.23;;;;;;;19.64;nan;100197.31;5027094;28;20550;-67
2022/09/09 00:32:54;;;;;;;12.10;8.48;;;;;;;19.62;nan;100192.25;5028722;28;20670;-68
2022/09/09 00:35:36;;;;;;;14.02;8.45;;;;;;;19.61;nan;100196.03;5028212;28;20053;-68
2022/09/09 00:38:17;;;;;;;13.65;8.60;;;;;;;19.58;nan;100211.81;5011574;28;20062;-68
2022/09/09 00:41:14;;;;;;;9.93;8.25;;;;;;;19.62;nan;100189.59;5028329;28;20389;-68
2022/09/09 00:43:40;;;;;;;10.20;7.15;;;;;;;;;;5027968;28;20033;-67
2022/09/09 00:46:24;;;;;;;10.40;8.02;;;;;;;19.69;nan;100175.91;5026462;28;20032;-68
2022/09/09 00:49:01;;;;;;;12.82;7.95;;;;;;;19.71;nan;100187.88;5029012;28;20062;-68
2022/09/09 00:51:55;;;;;;;14.45;7.72;;;;;;;19.71;nan;100197.78;5012412;28;20061;-67
2022/09/09 00:54:54;;;;;;;10.82;7.95;;;;;;;19.68;nan;100203.69;5004176;28;20422;-68
2022/09/09 00:57:19;;;;;;;;;;;;;;;19.69;nan;100206.06;5062947;28;20040;-68
2022/09/09 00:59:47;;;;;;;9.87;7.00;;;;;;;19.70;nan;100199.63;5069506;28;20003;-68
2022/09/09 01:02:18;;;;;;;12.13;7.32;;;;;;;19.71;nan;100189.75;5051506;28;20024;-67
2022/09/09 01:04:44;;;;;;;12.95;7.47;;;;;;;;;;5064483;28;20115;-66
2022/09/09 01:07:17;;;;;;;10.77;8.05;;;;;;;;;;5052819;28;20099;-66
2022/09/09 01:09:51;;;;;;;15.07;8.13;;;;;;;;;;5062965;28;20029;-65
2022/09/09 01:12:24;;;;;;;12.60;7.32;;;;;;;19.63;nan;100231.22;5062908;28;20104;-65
2022/09/09 01:15:12;;;;;;;11.63;7.80;;;;;;;19.66;nan;100214.66;5066343;28;20053;-66
2022/09/09 01:17:44;;;;;;;14.18;8.18;;;;;;;19.67;nan;100247.50;5044462;28;20060;-66
2022/09/09 01:20:12;;;;;;;10.77;7.53;;;;;;;19.66;nan;100241.34;5049183;28;20032;-66
2022/09/09 01:22:56;;;;;;;11.10;8.10;;;;;;;19.66;nan;100241.34;5066610;28;20074;-66
2022/09/09 01:25:43;;;;;;;15.00;7.95;;;;;;;19.67;nan;100218.88;5060093;28;20029;-65
2022/09/09 01:28:13;;;;;;;10.48;7.47;;;;;;;19.68;nan;100215.19;5066174;28;20035;-66
2022/09/09 01:30:40;;;;;;;11.60;7.63;;;;;;;;;;5069060;28;20028;-66
2022/09/09 01:33:07;;;;;;;11.98;8.45;;;;;;;;;;5067740;28;20063;-66
2022/09/09 01:36:00;;;;;;;10.80;8.38;;;;;;;19.70;nan;100209.53;5048140;28;20032;-66
2022/09/09 01:38:25;;;;;;;13.23;8.38;;;;;;;;;;5055614;28;20098;-66
2022/09/09 01:40:52;;;;;;;13.63;8.35;;;;;;;19.67;nan;100210.88;5062866;28;20474;-65
2022/09/09 01:43:18;;;;;;;9.65;7.28;;;;;;;;;;5063440;28;20039;-65
2022/09/09 01:45:46;;;;;;;9.27;7.43;;;;;;;19.73;nan;100225.78;5063800;28;20025;-65
2022/09/09 01:48:11;;;;;;;11.93;7.45;;;;;;;19.74;nan;100211.34;5061048;28;20474;-65
2022/09/09 01:50:37;;;;;;;12.93;8.05;;;;;;;;;;5043771;28;20043;-67
2022/09/09 01:53:03;;;;;;;10.93;7.37;;;;;;;19.75;nan;100194.22;5043962;28;20385;-66
2022/09/09 01:55:33;;;;;;;11.27;7.03;;;;;;;19.74;nan;100205.22;5062637;28;20077;-68
2022/09/09 01:58:01;;;;;;;12.73;7.30;;;;;;;19.74;nan;100216.69;5050160;28;20100;-65
2022/09/09 02:00:31;;;;;;;9.45;6.95;;;;;;;19.68;nan;100193.81;5062147;28;20037;-65
2022/09/09 02:02:56;;;;;;;13.30;7.43;;;;;;;19.71;nan;100195.09;5064807;28;20027;-66
2022/09/09 02:05:42;;;;;;;12.00;7.70;;;;;;;19.72;nan;100199.34;5061664;28;20021;-66
2022/09/09 02:08:11;;;;;;;10.15;7.53;;;;;;;19.74;nan;100183.84;5050454;28;20048;-66
2022/09/09 02:11:01;;;;;;;10.07;7.45;;;;;;;19.74;nan;100243.41;5061767;28;20036;-66
2022/09/09 02:13:29;;;;;;;10.85;7.40;;;;;;;19.75;nan;100180.88;5065531;28;20099;-65
2022/09/09 02:16:18;;;;;;;11.18;7.40;;;;;;;19.75;nan;100198.75;5065438;28;20024;-65
2022/09/09 02:18:46;;;;;;;;;;;;;;;19.75;nan;100207.59;5050179;28;20436;-66
2022/09/09 02:21:13;;;;;;;17.57;7.77;;;;;;;19.73;nan;100193.72;5051504;28;20374;-66
2022/09/09 02:23:40;;;;;;;12.48;7.88;;;;;;;;;;5069964;28;20032;-66
2022/09/09 02:26:08;;;;;;;9.18;7.80;;;;;;;19.71;nan;100190.56;5067269;28;20040;-66
2022/09/09 02:28:35;;;;;;;11.55;7.65;;;;;;;19.71;nan;100195.88;5068463;28;20099;-66
2022/09/09 02:31:00;;;;;;;11.13;7.70;;;;;;;;;;5072853;28;20116;-67
2022/09/09 02:33:33;;;;;;;11.48;7.45;;;;;;;19.70;nan;100185.50;5070165;28;20437;-65
2022/09/09 02:36:03;;;;;;;11.30;7.75;;;;;;;19.67;nan;100186.03;5050602;28;20394;-66
2022/09/09 02:38:32;;;;;;;9.70;7.50;;;;;;;19.63;nan;100177.00;5070384;28;20139;-64
2022/09/09 02:40:58;;;;;;;10.48;7.53;;;;;;;19.63;nan;100180.47;5053508;28;20412;-66
2022/09/09 02:43:24;;;;;;;12.00;7.40;;;;;;;19.59;nan;100184.03;5055009;28;20032;-65
2022/09/09 02:46:05;;;;;;;10.65;7.45;;;;;;;19.59;nan;100184.84;5055386;28;20486;-66
2022/09/09 02:48:50;;;;;;;13.52;8.13;;;;;;;19.59;nan;100166.13;5063523;28;20024;-68
2022/09/09 02:51:30;;;;;;;11.65;7.47;;;;;;;19.60;nan;100191.75;5069010;28;20059;-68
2022/09/09 02:54:21;;;;;;;8.15;7.18;;;;;;;19.60;nan;100199.75;5066925;28;20032;-68
2022/09/09 02:56:56;;;;;;;9.95;7.22;;;;;;;19.60;nan;100194.41;5066200;28;20401;-68
2022/09/09 02:59:22;;;;;;;14.98;8.18;;;;;;;19.59;nan;100192.84;5084800;28;20420;-68
2022/09/09 03:01:47;;;;;;;11.43;7.90;;;;;;;19.61;nan;100200.56;5083552;28;20138;-67
2022/09/09 03:04:13;;;;;;;11.13;7.57;;;;;;;19.54;nan;100163.53;5080122;28;20028;-66
2022/09/09 03:06:39;;;;;;;12.07;7.80;;;;;;;19.54;nan;100199.06;5080821;28;20028;-66
2022/09/09 03:09:04;;;;;;;10.13;7.90;;;;;;;19.53;nan;100144.03;5061951;28;20027;-66
2022/09/09 03:11:30;;;;;;;21.88;9.25;;;;;;;19.52;nan;100171.84;5082999;28;20028;-67
2022/09/09 03:13:56;;;;;;;10.68;7.57;;;;;;;19.51;nan;100201.50;5079256;28;20055;-67
2022/09/09 03:16:23;;;;;;;13.25;8.10;;;;;;;19.49;nan;100184.97;5077231;28;20917;-67
2022/09/09 03:18:49;;;;;;;11.38;7.75;;;;;;;19.50;nan;100183.91;5065652;28;20036;-68
2022/09/09 03:21:14;;;;;;;13.95;8.23;;;;;;;19.45;nan;100174.06;5066979;28;20025;-68
2022/09/09 03:23:40;;;;;;;20.98;8.02;;;;;;;19.46;nan;100194.34;5067996;28;20028;-69
2022/09/09 03:26:05;;;;;;;11.77;8.45;;;;;;;19.48;nan;100180.72;5066167;28;20055;-68
2022/09/09 03:28:31;;;;;;;12.23;8.18;;;;;;;19.47;nan;100173.81;5062168;28;20032;-68
2022/09/09 03:31:04;;;;;;;13.27;8.23;;;;;;;19.41;nan;100212.31;5052490;28;20039;-68
2022/09/09 03:33:29;;;;;;;19.30;8.27;;;;;;;19.45;nan;100240.06;5070662;28;20104;-68
2022/09/09 03:35:56;;;;;;;13.90;8.38;;;;;;;19.48;nan;100197.53;5064971;28;20457;-68
2022/09/09 03:38:24;;;;;;;12.88;8.15;;;;;;;19.49;nan;100176.94;5071374;28;20024;-66
2022/09/09 03:40:57;;;;;;;11.77;8.20;;;;;;;19.51;nan;100191.63;5045523;28;20079;-67
2022/09/09 03:43:23;;;;;;;11.48;8.02;;;;;;;19.52;nan;100240.50;5070375;28;20509;-67
2022/09/09 03:45:49;;;;;;;11.77;8.05;;;;;;;19.51;nan;100183.63;5069307;28;20044;-67
2022/09/09 03:48:15;;;;;;;13.27;8.30;;;;;;;19.48;nan;100223.44;5068275;28;20051;-68
2022/09/09 03:50:48;;;;;;;11.32;8.35;;;;;;;19.41;nan;100177.63;5066849;28;20035;-66
2022/09/09 03:53:15;;;;;;;10.23;8.07;;;;;;;19.31;nan;100191.91;5067496;28;20131;-67
2022/09/09 03:55:54;;;;;;;12.85;8.25;;;;;;;19.27;nan;100230.94;5064538;28;20024;-64
2022/09/09 03:58:20;;;;;;;917.35;170.07;;;;;;;19.32;nan;100148.09;5064224;28;20027;-66
2022/09/09 04:00:57;;;;;;;32.45;25.63;;;;;;;19.55;nan;100191.81;5068392;28;20086;-66
2022/09/09 04:03:24;;;;;;;15.27;9.05;;;;;;;19.45;nan;100159.94;5066531;28;20028;-68
2022/09/09 04:05:53;;;;;;;11.32;8.75;;;;;;;19.42;nan;100172.00;5065469;28;20036;-68
2022/09/09 04:08:20;;;;;;;13.15;8.95;;;;;;;19.40;nan;100198.19;5061473;28;20029;-67
2022/09/09 04:10:46;;;;;;;11.68;8.77;;;;;;;;;;5059297;28;20073;-67
2022/09/09 04:13:15;;;;;;;16.27;9.13;;;;;;;19.34;nan;100213.47;5069037;28;20471;-67
2022/09/09 04:15:41;;;;;;;15.87;8.40;;;;;;;19.24;nan;100260.88;5068359;28;20021;-68
2022/09/09 04:18:06;;;;;;;15.52;8.77;;;;;;;19.25;nan;100204.53;5067012;28;20032;-68
2022/09/09 04:20:32;;;;;;;12.70;9.23;;;;;;;19.28;nan;100209.28;5068208;28;20035;-68
2022/09/09 04:22:57;;;;;;;12.63;8.70;;;;;;;19.28;nan;100206.63;5049357;28;20056;-67
2022/09/09 04:25:23;;;;;;;15.85;8.82;;;;;;;19.26;nan;100219.47;5053196;28;20235;-69
2022/09/09 04:27:57;;;;;;;13.02;8.77;;;;;;;19.24;nan;100224.28;5067379;28;20029;-69
2022/09/09 04:30:23;;;;;;;17.45;8.88;;;;;;;19.19;nan;100203.00;5063669;28;20036;-69
2022/09/09 04:32:48;;;;;;;19.33;9.18;;;;;;;19.19;nan;100208.34;5068172;28;20028;-67
2022/09/09 04:35:13;;;;;;;21.83;9.40;;;;;;;19.17;nan;100201.69;5067295;28;20042;-68
2022/09/09 04:37:39;;;;;;;20.63;9.15;;;;;;;19.21;nan;100219.53;5064588;28;20458;-68
2022/09/09 04:40:05;;;;;;;18.02;9.15;;;;;;;19.23;nan;100232.59;5063791;28;20474;-68
2022/09/09 04:42:35;;;;;;;13.70;9.00;;;;;;;19.27;nan;100234.38;5068693;28;20087;-70
2022/09/09 04:45:01;;;;;;;14.25;8.20;;;;;;;19.28;nan;100243.22;5067605;28;20502;-67
2022/09/09 04:47:27;;;;;;;23.88;9.15;;;;;;;19.26;nan;100205.31;5069332;28;20054;-68
2022/09/09 04:49:54;;;;;;;15.00;9.05;;;;;;;19.29;nan;100245.56;5070250;28;20035;-67
2022/09/09 04:52:20;;;;;;;23.35;8.82;;;;;;;19.29;nan;100252.78;5068836;28;20391;-69
2022/09/09 04:54:45;;;;;;;21.17;9.65;;;;;;;19.26;nan;100238.16;5061899;28;20092;-68
2022/09/09 04:57:11;;;;;;;17.80;9.52;;;;;;;19.26;nan;100226.69;5067978;28;20021;-68
2022/09/09 04:59:37;;;;;;;17.38;9.13;;;;;;;19.23;nan;100228.06;5052174;28;20024;-67
2022/09/09 05:02:03;;;;;;;28.02;10.00;;;;;;;19.20;nan;100223.28;5067183;28;20025;-67
2022/09/09 05:04:29;;;;;;;23.25;8.98;;;;;;;19.17;nan;100220.38;5071512;28;20028;-69
2022/09/09 05:06:55;;;;;;;21.30;9.32;;;;;;;19.14;nan;100208.41;5067633;28;20418;-68
2022/09/09 05:09:21;;;;;;;17.63;9.77;;;;;;;19.12;nan;100269.28;5065311;28;20082;-68
2022/09/09 05:11:46;;;;;;;23.75;10.35;;;;;;;19.13;nan;100246.88;5065818;28;20385;-68
2022/09/09 05:14:12;;;;;;;22.13;9.68;;;;;;;;;;5071198;28;20032;-68
2022/09/09 05:16:37;;;;;;;16.42;10.27;;;;;;;19.12;nan;100200.69;5042054;28;20122;-67
2022/09/09 05:19:03;;;;;;;14.98;9.82;;;;;;;;;;5047556;28;20082;-68
2022/09/09 05:21:30;;;;;;;19.60;9.75;;;;;;;19.22;nan;100223.78;5047597;28;20386;-68
2022/09/09 05:23:56;;;;;;;21.77;9.57;;;;;;;19.25;nan;100212.53;5041897;28;20078;-68
2022/09/09 05:26:22;;;;;;;27.77;10.32;;;;;;;19.27;nan;100223.72;5047044;28;20438;-68
2022/09/09 05:28:48;;;;;;;19.08;10.10;;;;;;;19.28;nan;100232.53;5048515;28;20032;-67
2022/09/09 05:31:15;;;;;;;19.15;10.02;;;;;;;19.24;nan;100186.91;5047347;28;20108;-68
2022/09/09 05:33:43;;;;;;;18.75;11.15;;;;;;;19.30;nan;100241.06;5048816;28;20056;-69
2022/09/09 05:36:14;;;;;;;16.88;10.65;;;;;;;19.29;nan;100202.06;5045690;28;20092;-67
2022/09/09 05:38:40;;;;;;;16.00;10.13;;;;;;;19.30;nan;100233.03;5044366;28;20036;-68
2022/09/09 05:41:06;;;;;;;19.00;10.73;;;;;;;19.26;nan;100234.69;5046373;28;20021;-67
2022/09/09 05:43:32;;;;;;;18.70;10.35;;;;;;;19.30;nan;100241.84;5045509;28;20471;-67
2022/09/09 05:46:09;;;;;;;19.20;11.45;;;;;;;19.33;nan;100256.50;5039666;28;20032;-69
2022/09/09 05:48:37;;;;;;;26.02;12.88;;;;;;;19.34;nan;100255.41;5046025;28;20483;-69
2022/09/09 05:51:04;;;;;;;18.65;11.85;;;;;;;19.36;nan;100260.47;5046084;28;20487;-68
2022/09/09 05:53:34;;;;;;;17.08;11.43;;;;;;;19.30;nan;100263.19;5050905;28;20032;-69
2022/09/09 05:56:11;;;;;;;;;;;;;;;19.32;nan;100293.09;5042628;28;20483;-70
2022/09/09 05:58:37;;;;;;;23.25;14.10;;;;;;;19.25;nan;100249.91;5048269;28;19913;-68
2022/09/09 06:01:15;;;;;;;21.90;12.52;;;;;;;19.27;nan;100306.47;5052075;28;20035;-68
2022/09/09 06:03:42;;;;;;;21.33;12.30;;;;;;;19.23;nan;100260.09;5050039;28;20036;-67
2022/09/09 06:06:10;;;;;;;20.00;13.23;;;;;;;19.19;nan;100284.97;5048272;28;20540;-68
2022/09/09 06:08:38;;;;;;;24.67;14.23;;;;;;;19.16;nan;100282.88;5046439;28;20116;-69
2022/09/09 06:11:08;;;;;;;22.50;13.98;;;;;;;;;;5055613;28;21176;-69
2022/09/09 06:13:34;;;;;;;18.95;13.73;;;;;;;19.09;nan;100284.00;5048915;28;20029;-68
2022/09/09 06:16:00;;;;;;;23.50;15.20;;;;;;;19.08;nan;100281.59;5047797;28;20401;-67
2022/09/09 06:18:29;;;;;;;24.30;15.18;;;;;;;19.08;nan;100295.75;5067300;28;20089;-69
2022/09/09 06:21:06;;;;;;;22.67;15.10;;;;;;;19.08;nan;100311.78;5064484;28;20487;-69
2022/09/09 06:23:33;;;;;;;27.15;15.70;;;;;;;19.05;nan;100295.53;5049403;28;20405;-69
2022/09/09 06:26:13;;;;;;;22.20;15.68;;;;;;;19.07;nan;100283.47;5082624;28;20070;-70
2022/09/09 06:28:39;;;;;;;30.05;15.57;;;;;;;19.12;nan;100282.63;5071341;28;20025;-69
2022/09/09 06:31:07;;;;;;;24.42;15.60;;;;;;;19.10;nan;100261.56;5067872;28;20035;-71
2022/09/09 06:33:41;;;;;;;24.83;17.05;;;;;;;19.19;nan;100295.66;5062700;28;20034;-73
2022/09/09 06:36:21;;;;;;;27.73;16.48;;;;;;;19.22;nan;100277.16;5065097;28;20103;-71
2022/09/09 06:38:47;;;;;;;28.20;17.88;;;;;;;19.27;nan;100393.78;5068409;28;20023;-72
2022/09/09 06:41:16;;;;;;;29.70;16.27;;;;;;;19.26;nan;100264.84;5053070;28;20032;-72
2022/09/09 06:43:42;;;;;;;26.70;17.10;;;;;;;19.32;nan;100287.75;5051585;28;20052;-71
2022/09/09 06:46:11;;;;;;;25.75;16.73;;;;;;;19.38;nan;100293.03;5068282;28;20029;-71
2022/09/09 06:48:40;;;;;;;30.98;18.35;;;;;;;19.38;nan;100325.06;5047451;28;20032;-69
2022/09/09 06:51:11;;;;;;;25.08;17.67;;;;;;;19.43;nan;100221.63;5068806;28;20017;-70
2022/09/09 06:53:37;;;;;;;28.52;17.98;;;;;;;19.47;nan;100280.63;5051210;28;20031;-69
2022/09/09 06:56:12;;;;;;;27.02;18.80;;;;;;;19.52;nan;100304.59;5066779;28;20048;-70
2022/09/09 06:58:42;;;;;;;30.50;18.35;;;;;;;19.52;nan;100292.03;5057160;28;20056;-70
2022/09/09 07:01:09;;;;;;;25.13;17.42;;;;;;;19.49;nan;100330.00;5071071;28;20467;-70
2022/09/09 07:03:35;;;;;;;24.63;17.42;;;;;;;19.53;nan;100274.91;5070873;28;20024;-70
2022/09/09 07:06:01;;;;;;;26.13;18.65;;;;;;;19.55;nan;100310.13;5051692;28;20035;-69
2022/09/09 07:08:26;;;;;;;28.52;18.65;;;;;;;19.48;nan;100360.44;5064036;28;20036;-70
2022/09/09 07:10:55;;;;;;;28.13;18.27;;;;;;;19.51;nan;100289.63;5068013;28;20020;-70
2022/09/09 07:13:25;;;;;;;26.63;18.23;;;;;;;19.52;nan;100313.38;5070235;28;20037;-70
2022/09/09 07:15:51;;;;;;;28.30;18.50;;;;;;;19.55;nan;100320.03;5057570;28;20017;-70
2022/09/09 07:18:16;;;;;;;27.08;19.15;;;;;;;;;;5067093;28;20040;-70
2022/09/09 07:20:43;;;;;;;39.92;19.65;;;;;;;;;;5051637;28;20056;-70
2022/09/09 07:23:08;;;;;;;27.53;17.60;;;;;;;19.60;nan;100303.16;5058827;28;20033;-71
2022/09/09 07:25:33;;;;;;;27.17;18.83;;;;;;;;;;5068756;28;20653;-69
2022/09/09 07:27:59;;;;;;;26.83;19.23;;;;;;;19.63;nan;100322.06;5064992;28;20020;-71
2022/09/09 07:30:24;;;;;;;28.25;19.17;;;;;;;;;;5064986;28;20669;-70
2022/09/09 07:32:51;;;;;;;31.30;18.85;;;;;;;19.61;nan;100377.66;5068456;28;20394;-69
2022/09/09 07:35:17;;;;;;;30.55;19.73;;;;;;;19.67;nan;100386.41;5049565;28;20086;-73
2022/09/09 07:37:43;;;;;;;27.90;17.80;;;;;;;19.69;nan;100331.63;5045272;28;20020;-71
2022/09/09 07:40:10;;;;;;;26.40;18.35;;;;;;;;;;5051797;28;20470;-71
2022/09/09 07:42:36;;;;;;;27.92;18.80;;;;;;;19.73;nan;100334.53;5053136;28;20021;-70
2022/09/09 07:45:01;;;;;;;23.00;16.92;;;;;;;19.76;nan;100336.63;5060057;28;20074;-71
2022/09/09 07:47:26;;;;;;;26.98;18.63;;;;;;;19.73;nan;100361.25;5066034;28;20021;-72
2022/09/09 07:49:52;;;;;;;29.55;19.42;;;;;;;19.83;nan;100331.72;5050294;28;20089;-73
2022/09/09 07:52:19;;;;;;;27.50;18.55;;;;;;;19.86;nan;100410.53;5067802;28;20021;-73
2022/09/09 07:54:45;;;;;;;27.65;18.77;;;;;;;;;;5067326;28;20029;-73
2022/09/09 07:57:12;;;;;;;29.40;18.20;;;;;;;19.93;nan;100362.84;5062573;28;20020;-70
2022/09/09 07:59:37;;;;;;;26.83;19.10;;;;;;;19.87;nan;100340.75;5050224;28;20024;-73
2022/09/09 08:02:02;;;;;;;35.35;19.17;;;;;;;19.96;nan;100306.94;5067166;28;20024;-74
2022/09/09 08:04:28;;;;;;;24.40;18.38;;;;;;;19.98;nan;100395.66;5068172;28;20031;-76
2022/09/09 08:06:57;;;;;;;28.95;18.55;;;;;;;20.06;nan;100361.34;5065718;28;20046;-76
2022/09/09 08:09:25;;;;;;;31.85;17.67;;;;;;;20.07;nan;100373.63;5061762;28;20029;-74
2022/09/09 08:11:50;;;;;;;30.80;17.63;;;;;;;20.08;nan;100359.97;5053380;28;20028;-74
2022/09/09 08:14:17;;;;;;;27.35;16.95;;;;;;;20.12;nan;100370.88;5045507;28;20029;-74
2022/09/09 08:16:46;;;;;;;37.47;21.67;;;;;;;20.12;nan;100373.56;5049840;28;20064;-76
2022/09/09 08:19:11;;;;;;;52.22;30.35;;;;;;;;;;5048313;28;20067;-73
2022/09/09 08:21:40;;;;;;;45.50;30.50;;;;;;;20.18;nan;100356.34;5049459;28;20033;-74
2022/09/09 08:24:06;;;;;;;34.97;24.67;;;;;;;20.25;nan;100396.88;5040654;28;20382;-75
2022/09/09 08:26:34;;;;;;;31.20;20.73;;;;;;;20.28;nan;100392.84;5050638;28;20032;-77
2022/09/09 08:29:01;;;;;;;26.95;20.25;;;;;;;20.31;nan;100392.28;5045975;28;20090;-76
2022/09/09 08:31:36;;;;;;;35.92;22.70;;;;;;;20.29;nan;100440.69;5040457;28;20025;-77
2022/09/09 08:34:03;;;;;;;30.23;17.70;;;;;;;20.27;nan;100381.34;5058760;28;20557;-76
2022/09/09 08:36:33;;;;;;;27.42;19.15;;;;;;;20.37;nan;100393.78;5046661;28;20082;-78
2022/09/09 08:38:59;;;;;;;29.58;18.35;;;;;;;20.35;nan;100391.41;5044400;28;20115;-79
2022/09/09 08:41:30;;;;;;;24.92;17.85;;;;;;;20.41;nan;100397.47;5050730;28;20055;-75
2022/09/09 08:44:19;;;;;;;25.00;16.83;;;;;;;20.39;nan;100392.41;5047788;28;20040;-79
2022/09/09 08:46:57;;;;;;;30.83;17.73;;;;;;;;;;5044171;28;20029;-76
2022/09/09 08:49:46;;;;;;;30.77;17.83;;;;;;;20.45;nan;100560.81;5048035;28;20056;-77
2022/09/09 08:52:29;;;;;;;24.65;17.08;;;;;;;20.51;nan;100385.81;5042300;28;20059;-77
2022/09/09 08:55:03;;;;;;;26.88;15.35;;;;;;;20.53;nan;100403.16;5044741;28;20505;-75
2022/09/09 08:57:32;;;;;;;24.02;16.05;;;;;;;20.55;nan;100459.88;5044558;28;20047;-77
2022/09/09 08:59:58;;;;;;;26.73;16.08;;;;;;;20.55;nan;100382.28;5047542;28;20357;-76
2022/09/09 09:02:45;;;;;;;21.17;15.40;;;;;;;20.60;nan;100392.13;5061122;28;20068;-74
2022/09/09 09:05:13;;;;;;;20.40;14.68;;;;;;;20.63;nan;100396.88;5046452;28;20029;-74
2022/09/09 09:07:38;;;;;;;26.27;16.05;;;;;;;20.66;nan;100395.50;5045404;28;20103;-75
2022/09/09 09:10:11;;;;;;;21.85;14.77;;;;;;;20.59;nan;100415.41;5045484;28;20555;-75
2022/09/09 09:12:42;;;;;;;26.00;15.38;;;;;;;20.72;nan;100403.16;5043532;28;20118;-76
2022/09/09 09:15:17;;;;;;;20.98;14.40;;;;;;;20.72;nan;100383.63;5048412;28;20024;-74
2022/09/09 09:17:43;;;;;;;18.65;13.18;;;;;;;20.69;nan;100398.41;5058438;28;20522;-73
2022/09/09 09:20:14;;;;;;;17.40;12.93;;;;;;;20.63;nan;100383.50;5065335;28;20024;-75
2022/09/09 09:22:51;;;;;;;18.83;13.13;;;;;;;20.74;nan;100373.44;5068479;28;20492;-74
2022/09/09 09:25:21;;;;;;;22.35;13.15;;;;;;;20.73;nan;100418.13;5047853;28;20024;-74
2022/09/09 09:28:04;;;;;;;18.75;13.30;;;;;;;20.69;nan;100454.59;5063907;28;20032;-74
2022/09/09 09:30:38;;;;;;;21.10;13.38;;;;;;;20.71;nan;100432.88;5064344;28;20080;-73
2022/09/09 09:33:26;;;;;;;20.67;13.63;;;;;;;20.79;nan;100406.25;5067735;28;20024;-77
2022/09/09 09:35:53;;;;;;;20.17;14.10;;;;;;;20.75;nan;100433.91;5048582;28;20364;-76
2022/09/09 09:38:26;;;;;;;19.48;14.35;;;;;;;;;;5053318;28;20027;-77
2022/09/09 09:41:00;;;;;;;22.00;14.30;;;;;;;20.78;nan;100339.63;5061856;28;20035;-77
2022/09/09 09:43:34;;;;;;;21.90;13.95;;;;;;;20.79;nan;100362.66;5063278;28;20085;-75
2022/09/09 09:46:00;;;;;;;21.00;13.73;;;;;;;;;;5048554;28;20032;-76
2022/09/09 09:48:27;;;;;;;18.95;14.15;;;;;;;20.85;nan;100382.88;5046775;28;20089;-73
2022/09/09 09:50:56;;;;;;;21.98;14.18;;;;;;;20.86;nan;100400.53;5066330;28;20039;-76
2022/09/09 09:53:31;;;;;;;23.83;15.73;;;;;;;20.89;nan;100394.59;5047883;28;20075;-77
2022/09/09 09:56:04;;;;;;;20.13;15.88;;;;;;;20.93;nan;100400.16;5049770;28;20094;-74
2022/09/09 09:58:49;;;;;;;22.02;17.48;;;;;;;20.92;nan;100396.66;5066798;28;20049;-74
2022/09/09 10:01:27;;;;;;;20.33;16.00;;;;;;;20.88;nan;100394.88;5050442;28;20499;-74
2022/09/09 10:03:57;;;;;;;21.80;16.20;;;;;;;20.95;nan;100420.19;5062743;28;20060;-73
2022/09/09 10:06:37;;;;;;;25.17;15.90;;;;;;;20.97;nan;100419.88;5062408;28;20051;-72
2022/09/09 10:09:25;;;;;;;20.77;15.73;;;;;;;21.01;nan;100400.25;5063628;28;20036;-73
2022/09/09 10:12:22;;;;;;;21.60;14.45;;;;;;;21.03;nan;100395.41;5059537;28;20487;-76
2022/09/09 10:14:50;;;;;;;23.88;15.07;;;;;;;21.08;nan;100402.56;5063899;28;20039;-76
2022/09/09 10:17:39;;;;;;;23.02;15.95;;;;;;;21.11;nan;100398.50;5068003;28;20123;-76
2022/09/09 10:20:31;;;;;;;18.15;15.07;;;;;;;21.16;nan;100404.53;5064386;28;20012;-76
2022/09/09 10:23:12;;;;;;;19.92;14.93;;;;;;;21.17;nan;100437.50;4983784;28;20208;-74
2022/09/09 10:25:53;;;;;;;18.42;16.05;;;;;;;21.25;nan;100404.66;4985850;28;20155;-75
2022/09/09 10:28:40;;;;;;;25.00;17.08;;;;;;;21.29;nan;100402.19;4983142;28;20050;-76
2022/09/09 10:31:08;;;;;;;20.67;16.55;;;;;;;21.33;nan;100387.09;4985647;28;20541;-76
2022/09/09 10:34:06;;;;;;;23.13;16.73;;;;;;;21.32;nan;100417.66;4986457;28;20041;-76
2022/09/09 10:36:31;;;;;;;26.65;16.55;;;;;;;;;;4957075;28;20049;-74
2022/09/09 10:39:04;;;;;;;18.48;15.93;;;;;;;21.44;nan;100383.97;4985618;28;20114;-74
2022/09/09 10:42:02;;;;;;;22.17;15.13;;;;;;;21.49;nan;100390.31;4988710;28;20030;-76
2022/09/09 10:44:36;;;;;;;29.48;15.73;;;;;;;21.58;nan;100391.22;4984893;28;20492;-75
2022/09/09 10:47:20;;;;;;;22.92;15.73;;;;;;;21.65;nan;100368.28;4987221;28;20038;-76
2022/09/09 10:50:04;;;;;;;19.83;15.20;;;;;;;21.72;nan;100373.25;4990707;28;20072;-76
2022/09/09 10:52:40;;;;;;;18.23;15.02;;;;;;;21.81;nan;100381.34;4980102;28;20693;-76
2022/09/09 10:55:15;;;;;;;20.27;14.80;;;;;;;21.87;nan;100356.81;5009138;28;20054;-81
2022/09/09 10:58:02;;;;;;;19.33;13.82;;;;;;;21.95;nan;100355.31;5000486;28;20018;-81
2022/09/09 11:00:48;;;;;;;16.65;13.70;;;;;;;;;;5063887;28;20074;-81
2022/09/09 11:03:26;;;;;;;21.27;15.13;;;;;;;21.98;nan;100338.63;5092116;28;20060;-79
2022/09/09 11:05:54;;;;;;;21.75;14.85;;;;;;;22.20;nan;100350.47;5080435;28;20036;-74
2022/09/09 11:08:23;;;;;;;18.33;13.70;;;;;;;22.24;nan;100356.84;5071778;28;20041;-75
2022/09/09 11:11:09;;;;;;;19.77;13.18;;;;;;;22.38;nan;100359.47;5090098;28;20004;-73
2022/09/09 11:13:55;;;;;;;23.95;12.95;;;;;;;22.51;nan;100364.00;5089541;28;20078;-74
2022/09/09 11:16:45;;;;;;;18.05;12.48;;;;;;;22.63;nan;100358.06;5091302;28;20029;-73
2022/09/09 11:19:23;;;;;;;15.43;12.18;;;;;;;22.75;nan;100346.75;5092335;28;20071;-71
2022/09/09 11:21:51;;;;;;;17.17;13.27;;;;;;;22.80;nan;100325.16;5090331;28;20008;-71
2022/09/09 11:24:19;;;;;;;18.58;12.98;;;;;;;22.93;nan;100359.16;5091391;28;20032;-72
2022/09/09 11:26:53;;;;;;;15.52;11.75;;;;;;;22.99;nan;100324.97;5077653;28;20033;-71
2022/09/09 11:29:34;;;;;;;14.68;11.93;;;;;;;23.17;nan;100356.13;5090643;28;20099;-73
2022/09/09 11:32:05;;;;;;;17.25;11.23;;;;;;;23.30;nan;100366.00;5088290;28;20017;-73
2022/09/09 11:34:52;;;;;;;15.05;11.20;;;;;;;23.43;nan;100336.63;5091095;28;20044;-71
2022/09/09 11:37:37;;;;;;;15.80;11.55;;;;;;;23.54;nan;100391.69;5073351;28;20074;-71
2022/09/09 11:40:09;;;;;;;14.45;11.20;;;;;;;23.68;nan;100357.41;5064511;28;20028;-72
2022/09/09 11:42:36;;;;;;;13.38;11.05;;;;;;;23.73;nan;100334.94;5066158;28;20074;-72
2022/09/09 11:45:25;;;;;;;16.13;10.50;;;;;;;23.84;nan;100352.38;5066796;28;20028;-72
2022/09/09 11:47:52;;;;;;;13.32;10.13;;;;;;;23.85;nan;100351.28;5065908;28;20159;-72
2022/09/09 11:50:18;;;;;;;11.40;10.13;;;;;;;23.88;nan;100339.09;5050148;28;20508;-71
2022/09/09 11:52:46;;;;;;;14.40;10.57;;;;;;;23.85;nan;100319.00;5065796;28;20452;-72
2022/09/09 11:55:36;;;;;;;12.43;10.18;;;;;;;23.98;nan;100326.13;5066161;28;20077;-71
2022/09/09 11:58:05;;;;;;;12.70;9.65;;;;;;;24.09;nan;100340.06;5066249;28;20106;-70
2022/09/09 12:00:41;;;;;;;14.73;9.97;;;;;;;24.12;nan;100370.91;5063609;28;20064;-72
2022/09/09 12:03:32;;;;;;;14.30;9.30;;;;;;;24.21;nan;100317.88;5063916;28;20569;-72
2022/09/09 12:06:00;;;;;;;13.40;9.43;;;;;;;24.23;nan;100342.59;5068405;28;20035;-72